sensor_id;sensor_type;location;lat;lon;timestamp;temperature;humidity
20911;DHT22;10615;42.702;23.314;2023-04-01T00:00:12;14.20;63.10
20911;DHT22;10615;42.702;23.314;2023-04-01T00:01:14;14.20;63.10
20911;DHT22;10615;42.702;23.314;2023-04-01T00:02:15;14.20;63.20
20911;DHT22;10615;42.702;23.314;2023-04-01T00:03:15;14.10;63.30
20911;DHT22;10615;42.702;23.314;2023-04-01T00:04:16;14.10;63.30
20911;DHT22;10615;42.702;23.314;2023-04-01T00:05:17;14.20;63.50
20911;DHT22;10615;42.702;23.314;2023-04-01T00:06:18;14.20;63.50
20911;DHT22;10615;42.702;23.314;2023-04-01T00:07:19;14.20;63.50
20911;DHT22;10615;42.702;23.314;2023-04-01T00:08:20;14.10;63.30
20911;DHT22;10615;42.702;23.314;2023-04-01T00:09:20;14.10;63.30
20911;DHT22;10615;42.702;23.314;2023-04-01T00:10:21;14.10;63.30
20911;DHT22;10615;42.702;23.314;2023-04-01T00:11:22;14.20;63.50
20911;DHT22;10615;42.702;23.314;2023-04-01T00:12:23;14.20;63.60
20911;DHT22;10615;42.702;23.314;2023-04-01T00:13:25;14.10;63.60
20911;DHT22;10615;42.702;23.314;2023-04-01T00:14:26;14.10;63.60
20911;DHT22;10615;42.702;23.314;2023-04-01T00:15:27;14.10;63.60
20911;DHT22;10615;42.702;23.314;2023-04-01T00:16:27;14.00;63.50
20911;DHT22;10615;42.702;23.314;2023-04-01T00:17:28;14.00;63.50
20911;DHT22;10615;42.702;23.314;2023-04-01T00:18:29;13.90;63.60
20911;DHT22;10615;42.702;23.314;2023-04-01T00:19:30;13.80;63.70
20911;DHT22;10615;42.702;23.314;2023-04-01T00:20:33;13.70;63.90
20911;DHT22;10615;42.702;23.314;2023-04-01T00:21:33;13.70;64.10
20911;DHT22;10615;42.702;23.314;2023-04-01T00:22:34;13.80;64.30
20911;DHT22;10615;42.702;23.314;2023-04-01T00:23:35;13.70;64.40
20911;DHT22;10615;42.702;23.314;2023-04-01T00:24:36;13.70;64.60
20911;DHT22;10615;42.702;23.314;2023-04-01T00:25:36;13.70;64.70
20911;DHT22;10615;42.702;23.314;2023-04-01T00:26:37;13.70;64.60
20911;DHT22;10615;42.702;23.314;2023-04-01T00:27:38;13.60;64.70
20911;DHT22;10615;42.702;23.314;2023-04-01T00:28:38;13.60;64.80
20911;DHT22;10615;42.702;23.314;2023-04-01T00:29:42;13.60;64.90
20911;DHT22;10615;42.702;23.314;2023-04-01T00:30:43;13.70;64.90
20911;DHT22;10615;42.702;23.314;2023-04-01T00:31:44;13.70;64.90
20911;DHT22;10615;42.702;23.314;2023-04-01T00:32:44;13.70;64.90
20911;DHT22;10615;42.702;23.314;2023-04-01T00:33:45;13.70;64.80
20911;DHT22;10615;42.702;23.314;2023-04-01T00:34:50;13.70;64.60
20911;DHT22;10615;42.702;23.314;2023-04-01T00:35:51;13.70;64.60
20911;DHT22;10615;42.702;23.314;2023-04-01T00:36:52;13.70;64.50
20911;DHT22;10615;42.702;23.314;2023-04-01T00:37:53;13.70;64.30
20911;DHT22;10615;42.702;23.314;2023-04-01T00:38:54;13.70;64.30
20911;DHT22;10615;42.702;23.314;2023-04-01T00:39:55;13.70;64.30
20911;DHT22;10615;42.702;23.314;2023-04-01T00:40:57;13.60;64.40
20911;DHT22;10615;42.702;23.314;2023-04-01T00:41:59;13.60;64.50
20911;DHT22;10615;42.702;23.314;2023-04-01T00:43:01;13.50;64.60
20911;DHT22;10615;42.702;23.314;2023-04-01T00:45:28;13.30;65.10
20911;DHT22;10615;42.702;23.314;2023-04-01T00:46:29;13.30;65.50
20911;DHT22;10615;42.702;23.314;2023-04-01T00:47:30;13.30;65.70
20911;DHT22;10615;42.702;23.314;2023-04-01T00:48:36;13.30;65.90
20911;DHT22;10615;42.702;23.314;2023-04-01T00:49:41;13.30;65.80
20911;DHT22;10615;42.702;23.314;2023-04-01T00:50:46;13.30;66.00
20911;DHT22;10615;42.702;23.314;2023-04-01T00:51:50;13.30;65.90
20911;DHT22;10615;42.702;23.314;2023-04-01T00:52:52;13.30;66.00
20911;DHT22;10615;42.702;23.314;2023-04-01T00:53:54;13.30;66.20
20911;DHT22;10615;42.702;23.314;2023-04-01T00:54:59;13.30;66.30
20911;DHT22;10615;42.702;23.314;2023-04-01T00:56:05;13.40;66.50
20911;DHT22;10615;42.702;23.314;2023-04-01T00:58:12;13.50;66.40
20911;DHT22;10615;42.702;23.314;2023-04-01T00:59:18;13.50;66.40
20911;DHT22;10615;42.702;23.314;2023-04-01T01:00:21;13.50;66.40
20911;DHT22;10615;42.702;23.314;2023-04-01T01:01:23;13.60;66.30
20911;DHT22;10615;42.702;23.314;2023-04-01T01:02:25;13.60;66.20
20911;DHT22;10615;42.702;23.314;2023-04-01T01:03:26;13.60;66.20
20911;DHT22;10615;42.702;23.314;2023-04-01T01:04:31;13.70;66.10
20911;DHT22;10615;42.702;23.314;2023-04-01T01:05:54;13.70;66.00
20911;DHT22;10615;42.702;23.314;2023-04-01T01:10:57;13.60;66.00
20911;DHT22;10615;42.702;23.314;2023-04-01T01:16:22;13.60;66.20
20911;DHT22;10615;42.702;23.314;2023-04-01T01:25:36;13.80;66.90
20911;DHT22;10615;42.702;23.314;2023-04-01T01:28:16;13.80;65.80
20911;DHT22;10615;42.702;23.314;2023-04-01T01:30:42;13.80;65.80
20911;DHT22;10615;42.702;23.314;2023-04-01T01:31:54;13.70;65.90
20911;DHT22;10615;42.702;23.314;2023-04-01T01:35:39;13.70;66.10
20911;DHT22;10615;42.702;23.314;2023-04-01T01:36:42;13.60;66.20
20911;DHT22;10615;42.702;23.314;2023-04-01T01:37:46;13.60;66.30
20911;DHT22;10615;42.702;23.314;2023-04-01T01:38:48;13.60;66.50
20911;DHT22;10615;42.702;23.314;2023-04-01T01:39:55;13.50;66.50
20911;DHT22;10615;42.702;23.314;2023-04-01T01:40:57;13.50;66.70
20911;DHT22;10615;42.702;23.314;2023-04-01T01:42:06;13.50;66.80
20911;DHT22;10615;42.702;23.314;2023-04-01T01:43:10;13.40;66.80
20911;DHT22;10615;42.702;23.314;2023-04-01T01:44:14;13.40;67.10
20911;DHT22;10615;42.702;23.314;2023-04-01T01:45:19;13.40;67.10
20911;DHT22;10615;42.702;23.314;2023-04-01T01:46:23;13.40;67.20
20911;DHT22;10615;42.702;23.314;2023-04-01T01:47:26;13.50;67.30
20911;DHT22;10615;42.702;23.314;2023-04-01T01:48:28;13.50;67.10
20911;DHT22;10615;42.702;23.314;2023-04-01T01:49:32;13.50;66.80
20911;DHT22;10615;42.702;23.314;2023-04-01T01:50:33;13.50;66.70
20911;DHT22;10615;42.702;23.314;2023-04-01T01:51:35;13.50;66.50
20911;DHT22;10615;42.702;23.314;2023-04-01T01:52:36;13.50;66.20
20911;DHT22;10615;42.702;23.314;2023-04-01T01:53:38;13.50;66.20
20911;DHT22;10615;42.702;23.314;2023-04-01T01:54:49;13.50;66.10
20911;DHT22;10615;42.702;23.314;2023-04-01T01:55:50;13.50;66.10
20911;DHT22;10615;42.702;23.314;2023-04-01T01:56:59;13.50;66.00
20911;DHT22;10615;42.702;23.314;2023-04-01T01:58:17;13.50;65.90
20911;DHT22;10615;42.702;23.314;2023-04-01T01:59:20;13.60;65.90
20911;DHT22;10615;42.702;23.314;2023-04-01T02:00:22;13.50;65.90
20911;DHT22;10615;42.702;23.314;2023-04-01T02:01:26;13.60;66.20
20911;DHT22;10615;42.702;23.314;2023-04-01T02:02:28;13.60;66.20
20911;DHT22;10615;42.702;23.314;2023-04-01T02:03:34;13.60;66.20
20911;DHT22;10615;42.702;23.314;2023-04-01T02:04:38;13.60;66.20
20911;DHT22;10615;42.702;23.314;2023-04-01T02:05:40;13.60;66.20
20911;DHT22;10615;42.702;23.314;2023-04-01T02:06:59;13.70;66.20
20911;DHT22;10615;42.702;23.314;2023-04-01T02:08:06;13.80;66.30
20911;DHT22;10615;42.702;23.314;2023-04-01T02:09:09;13.80;66.00
20911;DHT22;10615;42.702;23.314;2023-04-01T02:10:11;13.80;65.90
20911;DHT22;10615;42.702;23.314;2023-04-01T02:11:14;13.80;65.60
20911;DHT22;10615;42.702;23.314;2023-04-01T02:12:17;13.90;65.50
20911;DHT22;10615;42.702;23.314;2023-04-01T02:13:27;13.80;65.20
20911;DHT22;10615;42.702;23.314;2023-04-01T02:14:33;13.80;65.40
20911;DHT22;10615;42.702;23.314;2023-04-01T02:15:41;13.70;65.50
20911;DHT22;10615;42.702;23.314;2023-04-01T02:17:02;13.80;65.70
20911;DHT22;10615;42.702;23.314;2023-04-01T02:18:05;13.70;65.60
20911;DHT22;10615;42.702;23.314;2023-04-01T02:19:06;13.70;65.50
20911;DHT22;10615;42.702;23.314;2023-04-01T02:20:17;13.80;65.60
20911;DHT22;10615;42.702;23.314;2023-04-01T02:21:20;13.80;65.50
20911;DHT22;10615;42.702;23.314;2023-04-01T02:22:26;13.80;65.40
20911;DHT22;10615;42.702;23.314;2023-04-01T02:23:28;13.80;65.50
20911;DHT22;10615;42.702;23.314;2023-04-01T02:24:31;13.80;65.50
20911;DHT22;10615;42.702;23.314;2023-04-01T02:25:35;13.90;65.70
20911;DHT22;10615;42.702;23.314;2023-04-01T02:26:37;13.80;65.50
20911;DHT22;10615;42.702;23.314;2023-04-01T02:27:38;13.90;65.50
20911;DHT22;10615;42.702;23.314;2023-04-01T02:28:40;13.90;65.20
20911;DHT22;10615;42.702;23.314;2023-04-01T02:29:41;13.90;65.20
20911;DHT22;10615;42.702;23.314;2023-04-01T02:30:43;13.80;65.00
20911;DHT22;10615;42.702;23.314;2023-04-01T02:31:45;13.90;65.20
20911;DHT22;10615;42.702;23.314;2023-04-01T02:32:46;13.80;65.20
20911;DHT22;10615;42.702;23.314;2023-04-01T02:33:49;13.80;65.20
20911;DHT22;10615;42.702;23.314;2023-04-01T02:34:50;13.80;65.30
20911;DHT22;10615;42.702;23.314;2023-04-01T02:35:51;13.80;65.30
20911;DHT22;10615;42.702;23.314;2023-04-01T02:36:52;13.80;65.40
20911;DHT22;10615;42.702;23.314;2023-04-01T02:37:54;13.80;65.50
20911;DHT22;10615;42.702;23.314;2023-04-01T02:38:56;13.80;65.60
20911;DHT22;10615;42.702;23.314;2023-04-01T02:40:03;13.90;65.70
20911;DHT22;10615;42.702;23.314;2023-04-01T02:41:06;13.80;65.70
20911;DHT22;10615;42.702;23.314;2023-04-01T02:42:07;13.80;65.60
20911;DHT22;10615;42.702;23.314;2023-04-01T02:43:08;13.80;65.50
20911;DHT22;10615;42.702;23.314;2023-04-01T02:44:10;13.80;65.50
20911;DHT22;10615;42.702;23.314;2023-04-01T02:45:11;13.80;65.50
20911;DHT22;10615;42.702;23.314;2023-04-01T02:46:12;13.80;65.60
20911;DHT22;10615;42.702;23.314;2023-04-01T02:47:13;13.70;65.70
20911;DHT22;10615;42.702;23.314;2023-04-01T02:48:13;13.80;65.80
20911;DHT22;10615;42.702;23.314;2023-04-01T02:49:14;13.80;65.80
20911;DHT22;10615;42.702;23.314;2023-04-01T02:50:15;13.80;65.90
20911;DHT22;10615;42.702;23.314;2023-04-01T02:51:15;13.80;65.80
20911;DHT22;10615;42.702;23.314;2023-04-01T02:52:16;13.80;65.70
20911;DHT22;10615;42.702;23.314;2023-04-01T02:53:17;13.80;65.70
20911;DHT22;10615;42.702;23.314;2023-04-01T02:54:18;13.80;65.70
20911;DHT22;10615;42.702;23.314;2023-04-01T02:55:19;13.80;65.70
20911;DHT22;10615;42.702;23.314;2023-04-01T02:56:20;13.80;65.80
20911;DHT22;10615;42.702;23.314;2023-04-01T02:57:21;13.80;65.70
20911;DHT22;10615;42.702;23.314;2023-04-01T02:58:22;13.80;65.70
20911;DHT22;10615;42.702;23.314;2023-04-01T02:59:23;13.80;65.60
20911;DHT22;10615;42.702;23.314;2023-04-01T03:00:24;13.80;65.50
20911;DHT22;10615;42.702;23.314;2023-04-01T03:01:25;13.80;65.60
20911;DHT22;10615;42.702;23.314;2023-04-01T03:02:25;13.70;65.80
20911;DHT22;10615;42.702;23.314;2023-04-01T03:03:27;13.70;66.00
20911;DHT22;10615;42.702;23.314;2023-04-01T03:04:27;13.70;66.20
20911;DHT22;10615;42.702;23.314;2023-04-01T03:05:28;13.80;66.30
20911;DHT22;10615;42.702;23.314;2023-04-01T03:06:29;13.70;66.20
20911;DHT22;10615;42.702;23.314;2023-04-01T03:07:30;13.70;66.20
20911;DHT22;10615;42.702;23.314;2023-04-01T03:08:30;13.70;66.20
20911;DHT22;10615;42.702;23.314;2023-04-01T03:09:31;13.70;66.30
20911;DHT22;10615;42.702;23.314;2023-04-01T03:10:32;13.70;66.20
20911;DHT22;10615;42.702;23.314;2023-04-01T03:11:32;13.70;66.30
20911;DHT22;10615;42.702;23.314;2023-04-01T03:12:33;13.60;66.20
20911;DHT22;10615;42.702;23.314;2023-04-01T03:13:34;13.60;66.40
20911;DHT22;10615;42.702;23.314;2023-04-01T03:14:34;13.60;66.70
20911;DHT22;10615;42.702;23.314;2023-04-01T03:15:35;13.60;66.70
20911;DHT22;10615;42.702;23.314;2023-04-01T03:16:36;13.60;66.70
20911;DHT22;10615;42.702;23.314;2023-04-01T03:17:37;13.50;66.80
20911;DHT22;10615;42.702;23.314;2023-04-01T03:18:38;13.50;66.90
20911;DHT22;10615;42.702;23.314;2023-04-01T03:19:39;13.50;67.00
20911;DHT22;10615;42.702;23.314;2023-04-01T03:20:40;13.50;67.10
20911;DHT22;10615;42.702;23.314;2023-04-01T03:21:41;13.50;67.20
20911;DHT22;10615;42.702;23.314;2023-04-01T03:22:41;13.40;67.30
20911;DHT22;10615;42.702;23.314;2023-04-01T03:23:42;13.40;67.30
20911;DHT22;10615;42.702;23.314;2023-04-01T03:24:43;13.40;67.30
20911;DHT22;10615;42.702;23.314;2023-04-01T03:25:43;13.30;67.50
20911;DHT22;10615;42.702;23.314;2023-04-01T03:26:44;13.30;67.80
20911;DHT22;10615;42.702;23.314;2023-04-01T03:27:44;13.30;67.90
20911;DHT22;10615;42.702;23.314;2023-04-01T03:28:46;13.30;68.10
20911;DHT22;10615;42.702;23.314;2023-04-01T03:29:46;13.30;68.30
20911;DHT22;10615;42.702;23.314;2023-04-01T03:30:47;13.20;68.40
20911;DHT22;10615;42.702;23.314;2023-04-01T03:31:47;13.20;68.50
20911;DHT22;10615;42.702;23.314;2023-04-01T03:32:48;13.30;68.60
20911;DHT22;10615;42.702;23.314;2023-04-01T03:33:49;13.30;68.60
20911;DHT22;10615;42.702;23.314;2023-04-01T03:34:49;13.30;68.60
20911;DHT22;10615;42.702;23.314;2023-04-01T03:35:50;13.30;68.60
20911;DHT22;10615;42.702;23.314;2023-04-01T03:36:53;13.30;68.60
20911;DHT22;10615;42.702;23.314;2023-04-01T03:37:54;13.40;68.50
20911;DHT22;10615;42.702;23.314;2023-04-01T03:38:55;13.30;68.30
20911;DHT22;10615;42.702;23.314;2023-04-01T03:39:55;13.30;68.20
20911;DHT22;10615;42.702;23.314;2023-04-01T03:40:56;13.30;68.40
20911;DHT22;10615;42.702;23.314;2023-04-01T03:41:57;13.30;68.40
20911;DHT22;10615;42.702;23.314;2023-04-01T03:42:57;13.30;68.40
20911;DHT22;10615;42.702;23.314;2023-04-01T03:43:58;13.30;68.50
20911;DHT22;10615;42.702;23.314;2023-04-01T03:44:59;13.40;68.50
20911;DHT22;10615;42.702;23.314;2023-04-01T03:45:59;13.30;68.40
20911;DHT22;10615;42.702;23.314;2023-04-01T03:47:00;13.30;68.40
20911;DHT22;10615;42.702;23.314;2023-04-01T03:48:01;13.30;68.40
20911;DHT22;10615;42.702;23.314;2023-04-01T03:49:02;13.20;68.50
20911;DHT22;10615;42.702;23.314;2023-04-01T03:50:03;13.20;68.70
20911;DHT22;10615;42.702;23.314;2023-04-01T03:51:08;13.20;68.80
20911;DHT22;10615;42.702;23.314;2023-04-01T03:52:10;13.10;68.90
20911;DHT22;10615;42.702;23.314;2023-04-01T03:53:11;13.10;69.30
20911;DHT22;10615;42.702;23.314;2023-04-01T03:54:11;13.10;69.40
20911;DHT22;10615;42.702;23.314;2023-04-01T03:55:12;13.00;69.60
20911;DHT22;10615;42.702;23.314;2023-04-01T03:56:13;12.90;69.90
20911;DHT22;10615;42.702;23.314;2023-04-01T03:57:13;12.90;70.20
20911;DHT22;10615;42.702;23.314;2023-04-01T03:58:14;12.80;70.50
20911;DHT22;10615;42.702;23.314;2023-04-01T03:59:15;12.80;70.70
20911;DHT22;10615;42.702;23.314;2023-04-01T04:00:16;12.90;70.70
20911;DHT22;10615;42.702;23.314;2023-04-01T04:01:21;12.90;70.50
20911;DHT22;10615;42.702;23.314;2023-04-01T04:02:22;12.80;70.60
20911;DHT22;10615;42.702;23.314;2023-04-01T04:03:23;12.80;70.90
20911;DHT22;10615;42.702;23.314;2023-04-01T04:04:23;12.70;71.10
20911;DHT22;10615;42.702;23.314;2023-04-01T04:05:25;12.70;71.30
20911;DHT22;10615;42.702;23.314;2023-04-01T04:06:27;12.70;71.60
20911;DHT22;10615;42.702;23.314;2023-04-01T04:07:28;12.60;71.70
20911;DHT22;10615;42.702;23.314;2023-04-01T04:08:28;12.60;71.80
20911;DHT22;10615;42.702;23.314;2023-04-01T04:09:30;12.60;72.00
20911;DHT22;10615;42.702;23.314;2023-04-01T04:10:31;12.60;72.10
20911;DHT22;10615;42.702;23.314;2023-04-01T04:11:32;12.70;72.10
20911;DHT22;10615;42.702;23.314;2023-04-01T04:12:35;12.70;72.10
20911;DHT22;10615;42.702;23.314;2023-04-01T04:13:36;12.80;72.10
20911;DHT22;10615;42.702;23.314;2023-04-01T04:14:37;12.80;71.90
20911;DHT22;10615;42.702;23.314;2023-04-01T04:15:38;12.80;71.80
20911;DHT22;10615;42.702;23.314;2023-04-01T04:16:39;12.80;71.90
20911;DHT22;10615;42.702;23.314;2023-04-01T04:17:39;12.80;71.90
20911;DHT22;10615;42.702;23.314;2023-04-01T04:18:40;12.80;71.80
20911;DHT22;10615;42.702;23.314;2023-04-01T04:19:41;12.80;71.70
20911;DHT22;10615;42.702;23.314;2023-04-01T04:20:45;12.80;71.60
20911;DHT22;10615;42.702;23.314;2023-04-01T04:21:48;12.80;71.40
20911;DHT22;10615;42.702;23.314;2023-04-01T04:22:49;12.80;71.20
20911;DHT22;10615;42.702;23.314;2023-04-01T04:23:50;12.80;71.10
20911;DHT22;10615;42.702;23.314;2023-04-01T04:24:51;12.70;71.30
20911;DHT22;10615;42.702;23.314;2023-04-01T04:26:18;12.60;72.40
20911;DHT22;10615;42.702;23.314;2023-04-01T04:27:19;12.60;71.80
20911;DHT22;10615;42.702;23.314;2023-04-01T04:28:20;12.60;71.80
20911;DHT22;10615;42.702;23.314;2023-04-01T04:29:20;12.60;71.80
20911;DHT22;10615;42.702;23.314;2023-04-01T04:30:23;12.50;71.70
20911;DHT22;10615;42.702;23.314;2023-04-01T04:31:24;12.50;71.70
20911;DHT22;10615;42.702;23.314;2023-04-01T04:32:25;12.50;71.80
20911;DHT22;10615;42.702;23.314;2023-04-01T04:33:26;12.50;71.60
20911;DHT22;10615;42.702;23.314;2023-04-01T04:34:27;12.50;71.50
20911;DHT22;10615;42.702;23.314;2023-04-01T04:35:28;12.50;71.60
20911;DHT22;10615;42.702;23.314;2023-04-01T04:36:28;12.50;71.60
20911;DHT22;10615;42.702;23.314;2023-04-01T04:37:29;12.60;71.60
20911;DHT22;10615;42.702;23.314;2023-04-01T04:38:30;12.60;71.70
20911;DHT22;10615;42.702;23.314;2023-04-01T04:39:31;12.60;71.60
20911;DHT22;10615;42.702;23.314;2023-04-01T04:40:31;12.70;71.80
20911;DHT22;10615;42.702;23.314;2023-04-01T04:41:32;12.70;71.80
20911;DHT22;10615;42.702;23.314;2023-04-01T04:42:33;12.80;71.80
20911;DHT22;10615;42.702;23.314;2023-04-01T04:43:33;12.80;71.70
20911;DHT22;10615;42.702;23.314;2023-04-01T04:44:34;12.80;71.70
20911;DHT22;10615;42.702;23.314;2023-04-01T04:45:35;12.90;71.60
20911;DHT22;10615;42.702;23.314;2023-04-01T04:46:35;12.90;72.40
20911;DHT22;10615;42.702;23.314;2023-04-01T04:47:37;13.00;71.50
20911;DHT22;10615;42.702;23.314;2023-04-01T04:48:38;13.00;71.40
20911;DHT22;10615;42.702;23.314;2023-04-01T04:49:38;13.00;71.10
20911;DHT22;10615;42.702;23.314;2023-04-01T04:50:40;13.00;70.90
20911;DHT22;10615;42.702;23.314;2023-04-01T04:51:41;13.00;70.50
20911;DHT22;10615;42.702;23.314;2023-04-01T04:52:41;13.00;70.20
20911;DHT22;10615;42.702;23.314;2023-04-01T04:53:42;13.00;69.80
20911;DHT22;10615;42.702;23.314;2023-04-01T04:54:43;12.90;69.40
20911;DHT22;10615;42.702;23.314;2023-04-01T04:55:48;12.90;69.20
20911;DHT22;10615;42.702;23.314;2023-04-01T04:56:51;12.80;69.10
20911;DHT22;10615;42.702;23.314;2023-04-01T04:57:52;12.90;69.20
20911;DHT22;10615;42.702;23.314;2023-04-01T04:58:53;12.90;69.10
20911;DHT22;10615;42.702;23.314;2023-04-01T04:59:54;12.90;68.80
20911;DHT22;10615;42.702;23.314;2023-04-01T05:00:54;12.90;68.60
20911;DHT22;10615;42.702;23.314;2023-04-01T05:01:55;12.90;68.50
20911;DHT22;10615;42.702;23.314;2023-04-01T05:02:56;13.00;68.50
20911;DHT22;10615;42.702;23.314;2023-04-01T05:03:57;13.00;68.40
20911;DHT22;10615;42.702;23.314;2023-04-01T05:04:57;13.00;68.40
20911;DHT22;10615;42.702;23.314;2023-04-01T05:05:58;13.10;68.40
20911;DHT22;10615;42.702;23.314;2023-04-01T05:06:59;13.10;68.40
20911;DHT22;10615;42.702;23.314;2023-04-01T05:07:59;13.00;68.20
20911;DHT22;10615;42.702;23.314;2023-04-01T05:09:00;13.10;68.10
20911;DHT22;10615;42.702;23.314;2023-04-01T05:10:01;13.00;68.20
20911;DHT22;10615;42.702;23.314;2023-04-01T05:11:02;13.00;68.00
20911;DHT22;10615;42.702;23.314;2023-04-01T05:12:03;13.00;67.90
20911;DHT22;10615;42.702;23.314;2023-04-01T05:13:04;12.90;67.90
20911;DHT22;10615;42.702;23.314;2023-04-01T05:14:04;13.00;68.20
20911;DHT22;10615;42.702;23.314;2023-04-01T05:15:06;13.00;68.20
20911;DHT22;10615;42.702;23.314;2023-04-01T05:16:09;13.00;68.30
20911;DHT22;10615;42.702;23.314;2023-04-01T05:17:13;13.10;68.30
20911;DHT22;10615;42.702;23.314;2023-04-01T05:18:13;13.10;68.30
20911;DHT22;10615;42.702;23.314;2023-04-01T05:19:15;13.10;68.20
20911;DHT22;10615;42.702;23.314;2023-04-01T05:20:16;13.10;68.10
20911;DHT22;10615;42.702;23.314;2023-04-01T05:21:17;13.10;68.20
20911;DHT22;10615;42.702;23.314;2023-04-01T05:22:17;13.20;68.20
20911;DHT22;10615;42.702;23.314;2023-04-01T05:23:19;13.20;68.20
20911;DHT22;10615;42.702;23.314;2023-04-01T05:24:21;13.20;68.10
20911;DHT22;10615;42.702;23.314;2023-04-01T05:25:22;13.30;68.10
20911;DHT22;10615;42.702;23.314;2023-04-01T05:26:22;13.30;68.10
20911;DHT22;10615;42.702;23.314;2023-04-01T05:27:23;13.30;68.20
20911;DHT22;10615;42.702;23.314;2023-04-01T05:28:24;13.30;68.20
20911;DHT22;10615;42.702;23.314;2023-04-01T05:29:25;13.40;68.20
20911;DHT22;10615;42.702;23.314;2023-04-01T05:30:26;13.40;67.90
20911;DHT22;10615;42.702;23.314;2023-04-01T05:31:27;13.40;67.90
20911;DHT22;10615;42.702;23.314;2023-04-01T05:32:27;13.50;68.80
20911;DHT22;10615;42.702;23.314;2023-04-01T05:33:29;13.50;67.80
20911;DHT22;10615;42.702;23.314;2023-04-01T05:34:30;13.60;67.60
20911;DHT22;10615;42.702;23.314;2023-04-01T05:35:30;13.70;67.30
20911;DHT22;10615;42.702;23.314;2023-04-01T05:36:31;13.90;67.00
20911;DHT22;10615;42.702;23.314;2023-04-01T05:37:34;13.90;66.80
20911;DHT22;10615;42.702;23.314;2023-04-01T05:38:35;14.10;66.80
20911;DHT22;10615;42.702;23.314;2023-04-01T05:39:37;14.30;66.60
20911;DHT22;10615;42.702;23.314;2023-04-01T05:40:37;14.40;66.50
20911;DHT22;10615;42.702;23.314;2023-04-01T05:41:38;14.50;66.20
20911;DHT22;10615;42.702;23.314;2023-04-01T05:42:39;14.60;65.60
20911;DHT22;10615;42.702;23.314;2023-04-01T05:43:41;14.70;65.20
20911;DHT22;10615;42.702;23.314;2023-04-01T05:44:41;14.80;64.90
20911;DHT22;10615;42.702;23.314;2023-04-01T05:45:42;15.00;64.60
20911;DHT22;10615;42.702;23.314;2023-04-01T05:46:43;15.10;64.10
20911;DHT22;10615;42.702;23.314;2023-04-01T05:47:43;15.10;63.20
20911;DHT22;10615;42.702;23.314;2023-04-01T05:48:44;15.10;62.20
20911;DHT22;10615;42.702;23.314;2023-04-01T05:49:45;15.10;61.60
20911;DHT22;10615;42.702;23.314;2023-04-01T05:50:45;15.10;61.40
20911;DHT22;10615;42.702;23.314;2023-04-01T05:51:46;15.20;61.10
20911;DHT22;10615;42.702;23.314;2023-04-01T05:52:47;15.30;60.80
20911;DHT22;10615;42.702;23.314;2023-04-01T05:53:47;15.40;60.60
20911;DHT22;10615;42.702;23.314;2023-04-01T05:54:48;15.50;60.30
20911;DHT22;10615;42.702;23.314;2023-04-01T05:55:49;15.60;60.00
20911;DHT22;10615;42.702;23.314;2023-04-01T05:56:50;15.60;59.70
20911;DHT22;10615;42.702;23.314;2023-04-01T05:57:50;15.70;59.50
20911;DHT22;10615;42.702;23.314;2023-04-01T05:58:53;15.80;59.40
20911;DHT22;10615;42.702;23.314;2023-04-01T05:59:54;16.00;59.40
20911;DHT22;10615;42.702;23.314;2023-04-01T06:01:04;16.10;59.10
20911;DHT22;10615;42.702;23.314;2023-04-01T06:02:04;16.20;58.70
20911;DHT22;10615;42.702;23.314;2023-04-01T06:03:05;16.30;58.40
20911;DHT22;10615;42.702;23.314;2023-04-01T06:04:06;16.40;58.00
20911;DHT22;10615;42.702;23.314;2023-04-01T06:05:21;16.50;57.60
20911;DHT22;10615;42.702;23.314;2023-04-01T06:06:27;16.60;57.30
20911;DHT22;10615;42.702;23.314;2023-04-01T06:07:28;16.70;56.90
20911;DHT22;10615;42.702;23.314;2023-04-01T06:08:32;16.80;56.60
20911;DHT22;10615;42.702;23.314;2023-04-01T06:09:32;16.80;56.20
20911;DHT22;10615;42.702;23.314;2023-04-01T06:14:00;17.00;55.30
20911;DHT22;10615;42.702;23.314;2023-04-01T06:15:15;17.00;55.10
20911;DHT22;10615;42.702;23.314;2023-04-01T06:16:10;17.10;54.80
20911;DHT22;10615;42.702;23.314;2023-04-01T06:20:27;16.80;54.20
20911;DHT22;10615;42.702;23.314;2023-04-01T06:21:44;16.80;54.40
20911;DHT22;10615;42.702;23.314;2023-04-01T06:27:30;16.50;55.00
20911;DHT22;10615;42.702;23.314;2023-04-01T06:35:16;16.40;55.10
20911;DHT22;10615;42.702;23.314;2023-04-01T06:37:50;16.40;55.20
20911;DHT22;10615;42.702;23.314;2023-04-01T06:45:29;16.10;55.60
20911;DHT22;10615;42.702;23.314;2023-04-01T06:46:48;16.00;55.80
20911;DHT22;10615;42.702;23.314;2023-04-01T06:48:15;15.80;56.00
20911;DHT22;10615;42.702;23.314;2023-04-01T06:56:27;15.40;57.70
20911;DHT22;10615;42.702;23.314;2023-04-01T06:57:40;15.40;57.90
20911;DHT22;10615;42.702;23.314;2023-04-01T06:58:58;15.30;58.00
20911;DHT22;10615;42.702;23.314;2023-04-01T07:00:01;15.30;58.20
20911;DHT22;10615;42.702;23.314;2023-04-01T07:01:10;15.20;58.40
20911;DHT22;10615;42.702;23.314;2023-04-01T07:02:25;15.20;58.60
20911;DHT22;10615;42.702;23.314;2023-04-01T07:03:57;15.20;58.70
20911;DHT22;10615;42.702;23.314;2023-04-01T07:05:01;15.10;58.90
20911;DHT22;10615;42.702;23.314;2023-04-01T07:06:10;15.10;59.20
20911;DHT22;10615;42.702;23.314;2023-04-01T07:08:23;15.00;59.50
20911;DHT22;10615;42.702;23.314;2023-04-01T07:09:29;15.10;59.70
20911;DHT22;10615;42.702;23.314;2023-04-01T07:11:45;15.10;60.00
20911;DHT22;10615;42.702;23.314;2023-04-01T07:12:49;15.10;60.00
20911;DHT22;10615;42.702;23.314;2023-04-01T07:14:00;15.10;60.10
20911;DHT22;10615;42.702;23.314;2023-04-01T07:15:24;15.20;60.20
20911;DHT22;10615;42.702;23.314;2023-04-01T07:16:35;15.20;60.20
20911;DHT22;10615;42.702;23.314;2023-04-01T07:17:39;15.20;60.30
20911;DHT22;10615;42.702;23.314;2023-04-01T07:18:48;15.20;60.40
20911;DHT22;10615;42.702;23.314;2023-04-01T07:20:05;15.20;60.70
20911;DHT22;10615;42.702;23.314;2023-04-01T07:21:17;15.10;60.80
20911;DHT22;10615;42.702;23.314;2023-04-01T07:22:39;15.10;61.00
20911;DHT22;10615;42.702;23.314;2023-04-01T07:23:44;15.10;61.00
20911;DHT22;10615;42.702;23.314;2023-04-01T07:24:46;15.10;61.00
20911;DHT22;10615;42.702;23.314;2023-04-01T07:25:55;15.20;61.10
20911;DHT22;10615;42.702;23.314;2023-04-01T07:26:58;15.20;61.30
20911;DHT22;10615;42.702;23.314;2023-04-01T07:28:05;15.10;61.40
20911;DHT22;10615;42.702;23.314;2023-04-01T07:29:11;15.10;61.60
20911;DHT22;10615;42.702;23.314;2023-04-01T07:30:21;15.20;61.80